D/T METAR WX W/DIR W/SPE G/SPE TEMP DEWP
25/02/20 15:20 EGPN 251520Z 25011KT 9999 FEW025 05/02 Q0989 WSW (250°) 12.7mph 5°C 2°C
25/02/20 14:20 EGPN 251420Z 26006KT 9999 FEW018 06/03 Q0989 W (260°) 6.9mph 6°C 3°C
25/02/20 13:50 EGPN 251350Z 27006KT 9999 FEW010 SCT025 05/03 Q0990 W (270°) 6.9mph 5°C 3°C
25/02/20 13:20 EGPN 251320Z 25008KT 9999 FEW010 SCT020 05/03 Q0990 WSW (250°) 9.2mph 5°C 3°C
25/02/20 12:50 EGPN 251250Z 24004KT 9999 SCT010 SCT020 05/03 Q0990 WSW (240°) 4.6mph 5°C 3°C
25/02/20 12:20 EGPN 251220Z 23006KT 9999 SCT010 05/03 Q0991 SW (230°) 6.9mph 5°C 3°C
25/02/20 11:50 EGPN 251150Z 25007KT 9999 FEW009 05/03 Q0991 WSW (250°) 8.1mph 5°C 3°C
25/02/20 11:20 EGPN 251120Z 25007KT 9999 FEW008 04/02 Q0991 WSW (250°) 8.1mph 4°C 2°C
25/02/20 10:50 EGPN 251050Z 26006KT 9999 FEW008 04/03 Q0991 W (260°) 6.9mph 4°C 3°C
25/02/20 10:20 EGPN 251020Z 28005KT 9999 FEW008 03/02 Q0991 W (280°) 5.8mph 3°C 2°C
25/02/20 09:50 EGPN 250950Z 27005KT 9999 SCT008 02/01 Q0991 W (270°) 5.8mph 2°C 1°C
25/02/20 09:20 EGPN 250920Z 27003KT 9999 FEW008 02/01 Q0992 W (270°) 3.5mph 2°C 1°C
25/02/20 08:50 EGPN 250850Z 29003KT 9999 FEW010 01/00 Q0992 WNW (290°) 3.5mph 1°C 0°C
25/02/20 08:20 EGPN 250820Z 29003KT 9999 FEW010 00/M01 Q0992 WNW (290°) 3.5mph 0°C -1°C
25/02/20 07:50 EGPN 250750Z 00000KT 9999 FEW012 M00/M01 Q0992 N (0°) 0°C -1°C
25/02/20 07:20 EGPN 250720Z 00000KT 9999 FEW010 M01/M01 Q0992 N (0°) -1°C -1°C
25/02/20 06:50 EGPN 250650Z 00000KT CAVOK M00/M01 Q0992 N (0°) 0°C -1°C
25/02/20 06:20 EGPN 250620Z 28003KT CAVOK 00/M01 Q0993 W (280°) 3.5mph 0°C -1°C
24/02/20 20:20 EGPN 242020Z 28006KT 9999 FEW025 SCT038 02/01 Q0994 W (280°) 6.9mph 2°C 1°C
24/02/20 19:50 EGPN 241950Z 29005KT 9999 FEW025 SCT045 03/01 Q0994 WNW (290°) 5.8mph 3°C 1°C
24/02/20 19:20 EGPN 241920Z 30005KT 9999 FEW025 SCT045 03/02 Q0994 WNW (300°) 5.8mph 3°C 2°C
24/02/20 18:50 EGPN 241850Z 30005KT 9999 -RASN FEW025 BKN035 03/02 Q0994 -RA -SN WNW (300°) 5.8mph 3°C 2°C
24/02/20 18:20 EGPN 241820Z 32005KT 9000 -RASN FEW025 BKN038 02/01 Q0993 -RA -SN NW (320°) 5.8mph 2°C 1°C
24/02/20 17:50 EGPN 241750Z 32005KT 7000 -RASN FEW010 BKN022 02/01 Q0993 -RA -SN NW (320°) 5.8mph 2°C 1°C
24/02/20 17:20 EGPN 241720Z 35007KT 320V020 6000 -RA SCT010 BKN022 03/01 Q0993 -RA N (350°) 8.1mph 3°C 1°C
24/02/20 16:50 EGPN 241650Z 36006KT 330V030 4500 -RA BR BKN010 02/01 Q0993 -RA BR N (360°) 6.9mph 2°C 1°C
24/02/20 16:20 EGPN 241620Z 36007KT 330V040 4000 -RA BR BKN010 03/02 Q0992 -RA BR N (360°) 8.1mph 3°C 2°C
24/02/20 15:50 EGPN 241550Z 03005KT 360V070 4500 -RA BR BKN007 04/03 Q0992 -RA BR NNE (30°) 5.8mph 4°C 3°C
24/02/20 15:20 EGPN 241520Z 07008KT 030V090 4500 -RA BR BKN007 04/03 Q0992 -RA BR ENE (70°) 9.2mph 4°C 3°C
24/02/20 14:50 EGPN 241450Z 07009KT 040V100 6000 -RA BKN009 04/03 Q0993 -RA ENE (70°) 10.4mph 4°C 3°C
24/02/20 14:20 EGPN 241420Z 08010KT 5000 -RA BKN006 04/03 Q0993 -RA E (80°) 11.5mph 4°C 3°C
24/02/20 13:50 EGPN 241350Z 08011KT 5000 -RA BKN006 04/03 Q0994 -RA E (80°) 12.7mph 4°C 3°C
24/02/20 12:50 EGPN 241250Z 08013KT 5000 -RA BKN007 03/03 Q0996 -RA E (80°) 15.0mph 3°C 3°C
24/02/20 12:20 EGPN 241220Z 08015KT 5000 -RA BKN007 03/02 Q0996 -RA E (80°) 17.3mph 3°C 2°C
24/02/20 11:50 EGPN 241150Z 09015KT 5000 -RA FEW005 BKN008 03/02 Q0998 -RA E (90°) 17.3mph 3°C 2°C
24/02/20 11:20 EGPN 241120Z 09016KT 6000 -RA FEW005 BKN009 03/02 Q0998 -RA E (90°) 18.4mph 3°C 2°C
24/02/20 10:20 EGPN 241020Z 09012KT 6000 -RA FEW005 BKN009 03/03 Q1000 -RA E (90°) 13.8mph 3°C 3°C
24/02/20 09:50 EGPN 240950Z 10014KT 8000 -RA FEW005 BKN009 03/02 Q1001 -RA E (100°) 16.1mph 3°C 2°C
24/02/20 09:20 EGPN 240920Z 12013KT 9000 -RA FEW007 BKN010 03/02 Q1003 -RA ESE (120°) 15.0mph 3°C 2°C
24/02/20 08:50 EGPN 240850Z 12011KT 9999 -RA FEW008 BKN011 03/02 Q1003 -RA ESE (120°) 12.7mph 3°C 2°C
24/02/20 07:50 EGPN 240750Z 10010KT 9999 -RA SCT014 BKN020 04/03 Q1005 -RA E (100°) 11.5mph 4°C 3°C
24/02/20 07:20 EGPN 240720Z 14019KT 7000 RA SCT010 BKN020 04/03 Q1007 RA SE (140°) 21.9mph 4°C 3°C
24/02/20 06:20 EGPN 240620Z 08008KT 8000 -RA FEW006 SCT020 04/03 Q1008 -RA E (80°) 9.2mph 4°C 3°C
23/02/20 20:20 EGPN 232020Z 28007KT 9999 FEW035 03/01 Q1016 W (280°) 8.1mph 3°C 1°C
23/02/20 19:50 EGPN 231950Z 25011KT 9999 FEW035 05/02 Q1016 WSW (250°) 12.7mph 5°C 2°C
23/02/20 19:20 EGPN 231920Z 28007KT 9999 FEW035 04/00 Q1015 W (280°) 8.1mph 4°C 0°C
23/02/20 18:50 EGPN 231850Z 29007KT 9999 FEW035 04/01 Q1015 WNW (290°) 8.1mph 4°C 1°C
23/02/20 18:20 EGPN 231820Z 26014KT 9999 FEW035 05/02 Q1014 W (260°) 16.1mph 5°C 2°C